Time;durP1;ratioP1;P1;durP2;ratioP2;P2;SDS_P1;SDS_P2;PMS_P1;PMS_P2;Temp;Humidity;BMP_temperature;BMP_pressure;BME280_temperature;BME280_humidity;BME280_pressure;Samples;Min_cycle;Max_cycle;Signal;HPM_P1;HPM_P2
2021/01/30 00:00:44;;;;;;;;;26.50;22.75;;;;;20.05;57.71;99466.06;4937009;29;11052;-70
2021/01/30 00:03:14;;;;;;;;;32.25;24.00;;;;;20.12;57.79;99481.69;4936996;29;10985;-70
2021/01/30 00:05:43;;;;;;;;;40.00;33.50;;;;;20.04;57.19;99477.88;4936925;29;11017;-70
2021/01/30 00:08:13;;;;;;;;;42.75;33.25;;;;;20.00;57.79;99470.78;4936805;29;11416;-70
2021/01/30 00:10:42;;;;;;;;;37.25;32.75;;;;;19.99;56.88;99479.91;4936717;29;11654;-70
2021/01/30 00:13:11;;;;;;;;;36.25;32.50;;;;;19.99;57.72;99486.06;4936787;29;11625;-70
2021/01/30 00:15:39;;;;;;;;;34.00;30.00;;;;;20.03;57.22;99487.03;4937026;29;11612;-70
2021/01/30 00:18:08;;;;;;;;;37.00;27.75;;;;;20.10;56.57;99482.00;4936817;29;11784;-70
2021/01/30 00:20:38;;;;;;;;;30.00;26.25;;;;;20.17;56.89;99487.69;4936707;29;11405;-70
2021/01/30 00:23:08;;;;;;;;;22.50;22.50;;;;;20.23;57.37;99487.53;4936661;29;11136;-70
2021/01/30 00:25:37;;;;;;;;;35.75;27.00;;;;;20.31;57.33;99486.78;4936339;29;11246;-69
2021/01/30 00:28:07;;;;;;;;;31.25;25.75;;;;;20.36;55.74;99494.66;4936201;29;11162;-70
2021/01/30 00:30:36;;;;;;;;;26.50;21.75;;;;;20.40;54.65;99496.44;4935259;29;12127;-69
2021/01/30 00:33:07;;;;;;;;;22.00;21.00;;;;;20.34;54.88;99486.94;4936064;29;11317;-70
2021/01/30 00:35:36;;;;;;;;;29.50;26.50;;;;;20.32;56.05;99491.81;4935161;29;11039;-69
2021/01/30 00:38:06;;;;;;;;;31.75;30.50;;;;;20.41;55.25;99508.72;4935500;29;11448;-69
2021/01/30 00:40:34;;;;;;;;;32.00;28.25;;;;;20.36;54.97;99508.06;4935505;29;11250;-70
2021/01/30 00:43:04;;;;;;;;;25.00;24.25;;;;;20.31;55.90;99519.72;4935907;29;11331;-69
2021/01/30 00:45:33;;;;;;;;;34.25;32.00;;;;;20.25;55.62;99515.59;4935690;29;11228;-70
2021/01/30 00:48:02;;;;;;;;;29.50;28.75;;;;;20.32;56.28;99528.53;4916389;29;11645;-69
2021/01/30 00:50:30;;;;;;;;;36.00;26.25;;;;;20.34;56.30;99524.44;4916886;29;11657;-69
2021/01/30 00:53:00;;;;;;;;;40.25;31.75;;;;;20.41;57.88;99527.50;4920031;29;12168;-68
2021/01/30 00:55:28;;;;;;;;;39.25;33.50;;;;;20.34;56.16;99515.63;4935994;29;12437;-69
2021/01/30 00:57:56;;;;;;;;;36.75;32.25;;;;;20.46;53.47;99545.31;4935722;29;11632;-69
2021/01/30 01:00:27;;;;;;;;;38.00;31.50;;;;;20.43;53.65;99545.94;4934664;29;11752;-69
2021/01/30 01:02:56;;;;;;;;;36.00;33.00;;;;;20.38;55.65;99546.03;4934066;29;12331;-69
2021/01/30 01:05:25;;;;;;;;;39.75;32.25;;;;;20.41;53.46;99537.41;4935291;29;11676;-69
2021/01/30 01:07:55;;;;;;;;;24.25;19.50;;;;;20.34;56.83;99539.72;4935534;29;11684;-70
2021/01/30 01:10:24;;;;;;;;;31.25;29.75;;;;;20.52;54.23;99552.09;4934816;29;11611;-69
2021/01/30 01:12:52;;;;;;;;;38.50;31.25;;;;;20.59;54.66;99555.13;4918548;29;11693;-69
2021/01/30 01:15:22;;;;;;;;;39.00;32.50;;;;;20.67;55.75;99570.41;4933900;29;12499;-69
2021/01/30 01:17:50;;;;;;;;;36.75;32.00;;;;;20.65;53.32;99566.47;4931249;29;11784;-70
2021/01/30 01:20:21;;;;;;;;;40.75;32.50;;;;;20.66;54.20;99573.41;4933930;29;12400;-69
2021/01/30 01:22:51;;;;;;;;;31.75;27.25;;;;;20.65;52.85;99577.19;4933196;29;11761;-70
2021/01/30 01:25:23;;;;;;;;;32.50;29.75;;;;;20.64;54.42;99587.13;4933209;29;11637;-69
2021/01/30 01:27:51;;;;;;;;;38.75;32.50;;;;;20.64;57.10;99587.13;4932846;29;11591;-69
2021/01/30 01:30:22;;;;;;;;;35.75;31.50;;;;;20.64;55.41;99576.41;4932901;29;11408;-69
2021/01/30 01:32:52;;;;;;;;;31.50;29.75;;;;;20.64;56.46;99579.09;4933470;29;12531;-72
2021/01/30 01:35:25;;;;;;;;;32.25;25.25;;;;;20.74;53.29;99588.72;4933557;29;11524;-70
2021/01/30 01:37:53;;;;;;;;;30.75;28.75;;;;;20.80;54.60;99593.59;4933350;29;12397;-70
2021/01/30 01:40:32;;;;;;;;;26.75;26.25;;;;;20.92;52.80;99597.56;4933648;29;11618;-71
2021/01/30 01:43:05;;;;;;;;;25.25;21.50;;;;;20.99;52.74;99598.66;4931801;29;11321;-70
2021/01/30 01:45:34;;;;;;;;;21.00;21.00;;;;;21.11;53.48;99606.88;4933498;29;11271;-70
2021/01/30 01:48:09;;;;;;;;;31.50;24.25;;;;;21.24;54.05;99607.88;4933224;29;11197;-70
2021/01/30 01:50:44;;;;;;;;;25.00;23.75;;;;;21.35;52.73;99614.50;4931539;29;11077;-69
2021/01/30 01:53:17;;;;;;;;;29.25;24.25;;;;;21.45;52.86;99624.91;4914074;29;11057;-69
2021/01/30 01:55:58;;;;;;;;;29.00;27.75;;;;;21.57;53.29;99626.16;4932936;29;11202;-70
2021/01/30 01:58:31;;;;;;;;;27.50;25.25;;;;;21.66;51.99;99630.41;4931450;29;11243;-70
2021/01/30 02:01:00;;;;;;;;;26.50;23.50;;;;;21.74;51.79;99631.50;4932429;29;11817;-70
2021/01/30 02:03:30;;;;;;;;;22.00;16.50;;;;;21.83;51.19;99631.50;4931349;29;11110;-70
2021/01/30 02:06:02;;;;;;;;;27.25;23.50;;;;;21.83;52.79;99634.97;4930733;29;10900;-71
2021/01/30 02:08:33;;;;;;;;;30.25;24.75;;;;;21.86;51.24;99642.38;4933387;29;10896;-70
2021/01/30 02:11:01;;;;;;;;;22.25;22.25;;;;;21.86;52.46;99628.16;4934428;29;10952;-70
2021/01/30 02:13:36;;;;;;;;;24.50;19.25;;;;;21.93;52.75;99631.94;4934598;29;10973;-70
2021/01/30 02:16:43;;;;;;;;;26.00;21.00;;;;;22.01;52.04;99636.50;4934266;29;10669;-69
2021/01/30 02:19:37;;;;;;;;;28.25;22.50;;;;;22.09;51.65;99638.41;4934021;29;10815;-71
2021/01/30 02:22:36;;;;;;;;;24.00;20.75;;;;;22.16;51.90;99637.88;4934397;29;10928;-70
2021/01/30 02:25:36;;;;;;;;;25.50;23.50;;;;;22.25;51.34;99643.22;4915503;29;10819;-71
2021/01/30 02:28:32;;;;;;;;;26.50;21.00;;;;;22.32;51.75;99638.94;4916862;29;10922;-70
2021/01/30 02:31:33;;;;;;;;;19.50;15.50;;;;;22.38;51.87;99650.28;4931112;29;10809;-70
2021/01/30 02:34:23;;;;;;;;;21.00;19.25;;;;;22.45;51.32;99647.88;4931829;29;10659;-69
2021/01/30 02:37:00;;;;;;;;;20.50;17.75;;;;;22.51;50.78;99643.13;4932537;29;10752;-71
2021/01/30 02:39:58;;;;;;;;;23.00;20.75;;;;;22.59;50.70;99639.59;4931370;29;10703;-68
2021/01/30 02:42:41;;;;;;;;;24.25;23.00;;;;;22.62;50.53;99642.44;4932173;29;10716;-72
2021/01/30 02:45:20;;;;;;;;;23.25;21.75;;;;;22.70;50.26;99640.81;4931597;29;10787;-71
2021/01/30 02:47:59;;;;;;;;;25.25;21.25;;;;;22.69;50.30;99650.78;4931845;29;10792;-69
2021/01/30 02:50:35;;;;;;;;;26.75;21.25;;;;;22.65;50.28;99647.16;4932258;29;10671;-69
2021/01/30 02:53:08;;;;;;;;;27.25;22.50;;;;;22.59;50.30;99640.38;4932717;29;11499;-69
2021/01/30 02:55:37;;;;;;;;;27.00;22.00;;;;;22.57;50.52;99631.06;4933924;29;10590;-69
2021/01/30 02:58:07;;;;;;;;;21.75;20.00;;;;;22.50;50.52;99622.72;4934043;29;10730;-73
2021/01/30 03:00:36;;;;;;;;;28.75;24.75;;;;;22.60;50.48;99633.91;4932791;29;11317;-71
2021/01/30 03:03:04;;;;;;;;;18.25;17.75;;;;;22.61;50.77;99632.78;4932654;29;10755;-71
2021/01/30 03:05:33;;;;;;;;;13.25;11.50;;;;;22.65;50.58;99632.94;4932685;29;10594;-71
2021/01/30 03:08:33;;;;;;;;;25.75;22.00;;;;;22.71;50.51;99632.41;4932692;29;10637;-71
2021/01/30 03:11:14;;;;;;;;;31.00;23.25;;;;;22.76;51.01;99624.16;4934110;29;10506;-70
2021/01/30 03:14:13;;;;;;;;;22.75;21.00;;;;;22.85;50.15;99626.03;4935497;29;10731;-71
2021/01/30 03:16:44;;;;;;;;;21.50;17.75;;;;;22.85;50.04;99612.59;4932164;29;10582;-69
2021/01/30 03:19:19;;;;;;;;;22.00;19.00;;;;;22.85;49.95;99607.22;4918193;29;10727;-71
2021/01/30 03:21:53;;;;;;;;;25.25;22.50;;;;;22.93;50.31;99617.13;4933180;29;10778;-69
2021/01/30 03:24:22;;;;;;;;;23.50;20.00;;;;;22.96;50.12;99619.94;4933854;29;10624;-68
2021/01/30 03:26:50;;;;;;;;;23.50;19.75;;;;;22.85;50.08;99594.56;4935598;29;10717;-69
2021/01/30 03:29:19;;;;;;;;;19.50;17.50;;;;;23.05;50.27;99609.13;4935792;29;10494;-68
2021/01/30 03:31:48;;;;;;;;;18.00;17.75;;;;;23.06;50.09;99597.25;4934155;29;10518;-70
2021/01/30 03:34:17;;;;;;;;;25.50;22.00;;;;;23.19;50.34;99612.34;4935693;29;10492;-70
2021/01/30 03:36:46;;;;;;;;;25.00;25.00;;;;;23.19;49.91;99598.88;4937304;29;10427;-69
2021/01/30 03:39:18;;;;;;;;;14.50;13.25;;;;;23.26;50.04;99593.75;4936747;29;10572;-69
2021/01/30 03:41:46;;;;;;;;;19.00;19.00;;;;;23.31;49.98;99587.38;4936795;29;10639;-69
2021/01/30 03:44:15;;;;;;;;;27.00;21.00;;;;;23.39;49.71;99587.31;4936495;29;10444;-69
2021/01/30 03:46:43;;;;;;;;;15.75;15.25;;;;;23.44;49.74;99589.75;4936753;29;10457;-69
2021/01/30 03:49:12;;;;;;;;;19.25;17.75;;;;;23.48;49.45;99584.50;4936993;29;10421;-69
2021/01/30 03:51:40;;;;;;;;;33.25;25.00;;;;;23.54;49.65;99585.13;4935891;29;10329;-69
2021/01/30 03:54:08;;;;;;;;;23.00;20.00;;;;;23.57;49.49;99576.38;4935168;29;10645;-71
2021/01/30 03:56:37;;;;;;;;;21.75;16.00;;;;;23.62;49.50;99566.19;4918371;29;10257;-72
2021/01/30 03:59:05;;;;;;;;;26.75;20.00;;;;;23.62;49.43;99555.41;4935468;29;10420;-70
2021/01/30 04:01:34;;;;;;;;;20.25;13.25;;;;;23.72;49.34;99562.28;4934443;29;11092;-72
2021/01/30 04:04:05;;;;;;;;;22.50;21.50;;;;;23.77;49.21;99559.38;4934363;29;10340;-68
2021/01/30 04:06:33;;;;;;;;;20.50;19.75;;;;;23.80;49.09;99550.63;4918249;29;11156;-68
2021/01/30 04:09:02;;;;;;;;;15.25;15.25;;;;;23.81;49.12;99549.50;4933431;29;10305;-68
2021/01/30 04:11:32;;;;;;;;;27.50;21.75;;;;;23.84;49.14;99545.34;4932488;29;10168;-68
2021/01/30 04:14:01;;;;;;;;;20.25;19.00;;;;;23.90;48.90;99544.00;4932621;29;10209;-68
2021/01/30 04:16:29;;;;;;;;;19.25;16.50;;;;;23.94;48.49;99536.81;4932689;29;10306;-68
2021/01/30 04:18:59;;;;;;;;;18.75;15.00;;;;;23.98;48.47;99529.63;4933008;29;9851;-68
2021/01/30 04:21:27;;;;;;;;;12.25;12.25;;;;;24.04;48.85;99523.69;4932675;29;9989;-69
2021/01/30 04:23:57;;;;;;;;;22.00;18.00;;;;;24.16;48.53;99516.72;4929903;29;10258;-68
2021/01/30 04:26:25;;;;;;;;;12.50;12.50;;;;;24.18;48.62;99514.47;4932537;29;10102;-68
2021/01/30 04:28:54;;;;;;;;;21.75;19.50;;;;;24.21;48.37;99498.41;4932737;29;10077;-68
2021/01/30 04:31:23;;;;;;;;;18.50;14.25;;;;;24.29;48.44;99504.84;4931923;29;10210;-69
2021/01/30 04:33:51;;;;;;;;;15.25;15.25;;;;;24.32;48.00;99504.16;4914018;29;10152;-68
2021/01/30 04:36:21;;;;;;;;;20.00;18.75;;;;;24.39;48.09;99499.75;4930486;29;9820;-68
2021/01/30 04:38:50;;;;;;;;;22.00;15.75;;;;;24.44;48.13;99498.75;4927590;29;10199;-68
2021/01/30 04:41:50;;;;;;;;;26.25;18.50;;;;;24.50;47.42;99488.50;4930770;29;9935;-67
2021/01/30 04:44:44;;;;;;;;;27.25;23.50;;;;;24.57;48.10;99486.03;4931303;29;10045;-68
2021/01/30 04:47:35;;;;;;;;;20.50;19.00;;;;;24.61;48.05;99474.22;4932884;29;10263;-68
2021/01/30 04:50:44;;;;;;;;;17.00;16.50;;;;;24.69;47.82;99470.59;4933949;29;10184;-68
2021/01/30 04:53:44;;;;;;;;;21.25;16.25;;;;;24.73;47.25;99473.34;4933196;29;9932;-68
2021/01/30 04:56:39;;;;;;;;;17.75;14.75;;;;;24.76;47.20;99461.09;4933654;29;9865;-68
2021/01/30 04:59:36;;;;;;;;;23.25;21.75;;;;;24.81;46.70;99455.44;4916719;29;9765;-68
2021/01/30 05:02:27;;;;;;;;;17.75;17.75;;;;;24.87;46.74;99444.06;4914885;29;9760;-68
2021/01/30 05:04:59;;;;;;;;;19.00;16.25;;;;;25.02;47.30;99447.97;4914525;29;9690;-68
2021/01/30 05:07:45;;;;;;;;;17.50;17.50;;;;;25.09;46.85;99444.66;4916928;29;9777;-68
2021/01/30 05:10:27;;;;;;;;;21.50;17.50;;;;;25.11;46.60;99447.81;4928763;29;9927;-67
2021/01/30 05:13:21;;;;;;;;;20.25;16.50;;;;;25.19;46.46;99434.13;4931097;29;9840;-68
2021/01/30 05:15:56;;;;;;;;;18.25;14.75;;;;;25.27;47.36;99424.31;4933735;29;9850;-67
2021/01/30 05:18:32;;;;;;;;;21.75;17.00;;;;;25.32;47.05;99413.25;4933711;29;10374;-68
2021/01/30 05:21:12;;;;;;;;;18.50;17.25;;;;;25.23;46.36;99416.13;4934466;29;9743;-68
2021/01/30 05:23:44;;;;;;;;;18.50;15.00;;;;;25.31;46.61;99409.75;4934322;29;9572;-68
2021/01/30 05:26:51;;;;;;;;;16.75;15.00;;;;;25.38;46.24;99408.38;4932788;29;10268;-67
2021/01/30 05:29:43;;;;;;;;;18.75;16.50;;;;;25.47;46.81;99400.88;4932740;29;9675;-67
2021/01/30 05:32:38;;;;;;;;;20.25;14.00;;;;;25.47;46.83;99390.84;4915068;29;9561;-68
2021/01/30 05:35:16;;;;;;;;;19.75;16.25;;;;;25.53;46.53;99381.34;4933077;29;10482;-67
2021/01/30 05:37:55;;;;;;;;;17.50;17.50;;;;;25.50;46.33;99359.66;4932987;29;9781;-68
2021/01/30 05:40:50;;;;;;;;;21.50;15.50;;;;;25.54;45.26;99368.63;4932913;29;9728;-68
2021/01/30 05:43:50;;;;;;;;;18.25;14.50;;;;;25.59;45.05;99352.94;4915956;29;9582;-68
2021/01/30 05:46:27;;;;;;;;;17.50;16.50;;;;;25.66;44.92;99345.03;4915773;29;10260;-67
2021/01/30 05:48:59;;;;;;;;;16.00;13.00;;;;;25.74;44.80;99337.06;4915894;29;9774;-67
2021/01/30 05:51:37;;;;;;;;;17.75;15.50;;;;;25.82;45.87;99334.16;4923208;29;9431;-68
2021/01/30 05:54:06;;;;;;;;;15.00;15.00;;;;;25.85;46.17;99322.66;4933256;29;9483;-68
2021/01/30 05:56:44;;;;;;;;;17.00;14.00;;;;;25.89;45.77;99325.44;4931251;29;9663;-68
2021/01/30 05:59:23;;;;;;;;;15.33;15.33;;;;;25.86;45.88;99316.09;4932956;29;9518;-69
2021/01/30 06:02:11;;;;;;;;;19.67;18.00;;;;;25.93;45.97;99310.84;4933268;29;9434;-69
2021/01/30 06:04:40;;;;;;;;;11.33;11.33;;;;;25.98;45.91;99305.16;4931293;29;9438;-69
2021/01/30 06:07:31;;;;;;;;;20.00;13.00;;;;;26.00;45.90;99305.56;4933342;29;10191;-69
2021/01/30 06:10:29;;;;;;;;;15.33;15.33;;;;;26.07;45.54;99302.22;4931544;29;9533;-69
2021/01/30 06:13:25;;;;;;;;;17.75;12.00;;;;;26.12;45.10;99291.13;4933629;29;9346;-69
2021/01/30 06:15:56;;;;;;;;;19.50;18.50;;;;;26.13;44.08;99289.19;4931286;29;9407;-68
2021/01/30 06:18:30;;;;;;;;;17.67;16.00;;;;;26.19;44.25;99268.84;4933696;29;9505;-68
2021/01/30 06:21:22;;;;;;;;;18.33;16.00;;;;;26.30;43.56;99269.81;4931229;29;9504;-69
2021/01/30 06:24:07;;;;;;;;;12.67;12.00;;;;;26.42;44.12;99250.75;4932119;29;9284;-69
2021/01/30 06:26:47;;;;;;;;;17.67;15.67;;;;;26.47;43.56;99246.97;4931089;29;9307;-68
2021/01/30 06:29:37;;;;;;;;;17.00;16.00;;;;;26.56;44.72;99255.63;4931657;29;9209;-68
2021/01/30 06:32:26;;;;;;;;;16.33;13.67;;;;;26.63;44.23;99245.72;4916200;29;9449;-69
2021/01/30 06:35:23;;;;;;;;;14.00;13.33;;;;;26.74;44.46;99245.09;4933514;29;9227;-67
2021/01/30 06:38:02;;;;;;;;;13.00;11.00;;;;;26.85;44.59;99232.53;4933229;29;9347;-67
2021/01/30 06:40:36;;;;;;;;;12.67;11.67;;;;;26.85;42.44;99227.91;4934123;29;9221;-68
2021/01/30 06:43:15;;;;;;;;;13.67;12.00;;;;;26.87;44.55;99227.53;4933913;29;9077;-68
2021/01/30 06:45:45;;;;;;;;;8.67;8.33;;;;;26.95;44.50;99212.97;4933526;29;9346;-67
2021/01/30 06:48:29;;;;;;;;;14.00;11.67;;;;;26.91;44.16;99209.41;4935638;29;9215;-68
2021/01/30 06:50:57;;;;;;;;;5.33;4.00;;;;;26.85;43.76;99203.53;4935325;29;9033;-67
2021/01/30 06:53:33;;;;;;;;;12.00;12.00;;;;;26.76;43.26;99205.72;4936643;29;9156;-67
2021/01/30 06:56:33;;;;;;;;;9.33;9.33;;;;;26.79;43.72;99206.91;4937550;29;9740;-67
2021/01/30 06:59:05;;;;;;;;;15.67;14.00;;;;;26.78;42.63;99198.00;4935971;29;9249;-68
2021/01/30 07:01:44;;;;;;;;;8.67;8.67;;;;;26.84;43.76;99193.84;4934446;29;9847;-67
2021/01/30 07:04:41;;;;;;;;;14.33;11.33;;;;;26.92;43.55;99186.63;4935453;29;9035;-68
2021/01/30 07:07:27;;;;;;;;;11.33;10.33;;;;;27.01;43.51;99181.75;4936805;29;8981;-67
2021/01/30 07:10:35;;;;;;;;;14.33;12.33;;;;;27.07;43.21;99180.28;4932347;29;9127;-68
2021/01/30 07:13:34;;;;;;;;;14.00;11.67;;;;;27.10;41.15;99171.44;4934515;29;9026;-67
2021/01/30 07:16:31;;;;;;;;;16.33;15.00;;;;;27.22;42.15;99167.72;4931533;29;9117;-67
2021/01/30 07:19:36;;;;;;;;;12.75;10.25;;;;;27.30;43.20;99161.25;4934282;29;9089;-67
2021/01/30 07:22:12;;;;;;;;;10.75;10.75;;;;;27.30;42.06;99162.00;4931268;29;8872;-68
2021/01/30 07:25:02;;;;;;;;;8.33;8.33;;;;;27.34;42.86;99161.28;4934570;29;8891;-67
2021/01/30 07:27:44;;;;;;;;;11.33;10.00;;;;;27.32;42.70;99153.50;4934185;29;8990;-68
2021/01/30 07:30:19;;;;;;;;;13.33;13.33;;;;;27.30;42.59;99151.16;4933871;29;9114;-68
2021/01/30 07:33:03;;;;;;;;;13.33;12.67;;;;;27.35;42.29;99149.28;4933588;29;9801;-68
2021/01/30 07:35:39;;;;;;;;;11.25;9.50;;;;;27.42;42.42;99146.66;4934650;29;9170;-67
2021/01/30 07:38:21;;;;;;;;;12.25;12.25;;;;;27.36;41.67;99129.97;4934105;29;8852;-67
2021/01/30 07:41:08;;;;;;;;;12.50;12.50;;;;;27.47;41.69;99147.13;4934071;29;8958;-68
2021/01/30 07:43:50;;;;;;;;;11.50;9.50;;;;;27.48;42.31;99139.78;4917424;29;8855;-67
2021/01/30 07:46:24;;;;;;;;;10.00;10.00;;;;;27.53;41.65;99145.63;4934794;29;8867;-67
2021/01/30 07:49:17;;;;;;;;;14.00;11.50;;;;;27.61;40.47;99138.41;4934286;29;8864;-68
2021/01/30 07:52:08;;;;;;;;;13.75;11.75;;;;;27.77;42.00;99135.47;4934854;29;8867;-68
2021/01/30 07:54:47;;;;;;;;;14.00;11.50;;;;;27.84;42.11;99132.84;4933768;29;8851;-68
2021/01/30 07:57:58;;;;;;;;;10.75;10.25;;;;;27.87;41.55;99132.09;4933922;29;8868;-68
2021/01/30 08:01:01;;;;;;;;;12.25;12.25;;;;;27.82;39.62;99127.78;4933482;29;8856;-68
2021/01/30 08:03:50;;;;;;;;;16.50;11.75;;;;;27.75;41.15;99103.31;4932075;29;9030;-68
2021/01/30 08:06:58;;;;;;;;;12.50;11.50;;;;;27.91;41.31;99116.63;4932660;29;8856;-68
2021/01/30 08:09:48;;;;;;;;;15.00;13.50;;;;;27.89;40.98;99114.31;4933426;29;8868;-69
2021/01/30 08:12:37;;;;;;;;;11.75;10.50;;;;;27.85;40.73;99104.56;4932904;29;8868;-68
2021/01/30 08:15:11;;;;;;;;;12.50;12.00;;;;;27.85;40.43;99110.00;4933610;29;8972;-69
2021/01/30 08:18:20;;;;;;;;;16.25;13.25;;;;;27.77;39.69;99106.44;4915925;29;8904;-68
2021/01/30 08:21:11;;;;;;;;;15.00;10.75;;;;;27.82;40.35;99106.09;4934891;29;8867;-68
2021/01/30 08:24:07;;;;;;;;;11.00;11.00;;;;;27.91;39.84;99103.88;4932877;29;8859;-68
2021/01/30 08:26:43;;;;;;;;;16.75;14.00;;;;;28.00;40.51;99100.06;4935142;29;8864;-69
2021/01/30 08:29:18;;;;;;;;;10.25;9.00;;;;;28.03;40.45;99102.03;4936001;29;8868;-68
2021/01/30 08:31:55;;;;;;;;;12.75;12.75;;;;;28.02;40.72;99103.97;4917298;29;8859;-68
2021/01/30 08:34:30;;;;;;;;;11.50;11.50;;;;;28.00;40.28;99103.56;4933872;29;8867;-68
2021/01/30 08:37:20;;;;;;;;;13.25;10.25;;;;;28.00;40.60;99108.19;4932571;29;9066;-68
2021/01/30 08:40:07;;;;;;;;;11.75;11.75;;;;;27.99;40.15;99101.22;4932904;29;8868;-68
2021/01/30 08:42:52;;;;;;;;;14.75;12.00;;;;;27.98;38.91;99100.44;4934764;29;8844;-68
2021/01/30 08:45:28;;;;;;;;;11.75;11.75;;;;;27.98;40.30;99092.31;4931956;29;8887;-67
2021/01/30 08:48:23;;;;;;;;;12.25;12.25;;;;;28.03;39.86;99094.66;4934459;29;8894;-68
2021/01/30 08:50:55;;;;;;;;;14.75;11.50;;;;;28.07;40.25;99097.41;4932587;29;8860;-68
2021/01/30 08:53:33;;;;;;;;;12.50;12.00;;;;;28.11;40.06;99099.00;4932828;29;8863;-68
2021/01/30 08:56:06;;;;;;;;;13.25;10.50;;;;;28.14;40.27;99095.53;4933193;29;8879;-67
2021/01/30 08:58:51;;;;;;;;;14.00;13.67;;;;;28.15;40.16;99096.31;4933315;29;9735;-66
2021/01/30 09:01:41;;;;;;;;;8.25;5.50;;;;;28.15;40.26;99094.38;4933381;29;8886;-67
2021/01/30 09:04:44;;;;;;;;;12.75;9.75;;;;;28.12;40.07;99099.78;4933073;29;8880;-67
2021/01/30 09:07:51;;;;;;;;;13.25;11.75;;;;;28.05;38.55;99091.59;4931629;29;8883;-67
2021/01/30 09:10:40;;;;;;;;;15.25;11.75;;;;;28.01;39.25;99096.19;4932052;29;8916;-68
2021/01/30 09:13:15;;;;;;;;;13.00;11.25;;;;;28.06;40.02;99099.34;4932847;29;8867;-67
2021/01/30 09:16:00;;;;;;;;;10.00;9.00;;;;;28.09;39.89;99097.81;4933558;29;8986;-68
2021/01/30 09:18:47;;;;;;;;;6.25;6.25;;;;;28.11;40.14;99103.66;4933909;29;8867;-67
2021/01/30 09:21:27;;;;;;;;;10.50;10.50;;;;;28.10;40.03;99102.88;4933808;29;8856;-68
2021/01/30 09:24:27;;;;;;;;;8.25;6.00;;;;;28.10;39.94;99110.22;4930186;29;8868;-66
2021/01/30 09:27:13;;;;;;;;;14.25;11.25;;;;;28.08;40.00;99107.09;4932261;29;8848;-67
2021/01/30 09:29:47;;;;;;;;;10.00;9.75;;;;;28.04;39.50;99090.81;4932647;29;8860;-68
2021/01/30 09:32:24;;;;;;;;;13.00;11.25;;;;;28.07;40.07;99100.91;4932274;29;8844;-68
2021/01/30 09:35:04;;;;;;;;;13.50;11.25;;;;;28.05;40.11;99099.72;4934362;29;8863;-68
2021/01/30 09:37:45;;;;;;;;;11.50;7.75;;;;;27.90;39.05;99085.25;4915412;29;8885;-69
2021/01/30 09:40:32;;;;;;;;;11.25;9.00;;;;;27.97;39.75;99100.81;4924275;29;8844;-68
2021/01/30 09:43:06;;;;;;;;;13.00;11.25;;;;;27.93;40.41;99089.94;4932356;29;8962;-70
2021/01/30 09:45:36;;;;;;;;;12.25;9.25;;;;;27.95;39.18;99095.75;4933788;29;8880;-68
2021/01/30 09:48:11;;;;;;;;;10.50;8.50;;;;;27.92;38.21;99091.88;4934551;29;8856;-68
2021/01/30 09:50:50;;;;;;;;;10.00;10.00;;;;;27.96;39.85;99100.03;4934545;29;8895;-68
2021/01/30 09:53:30;;;;;;;;;16.75;14.00;;;;;27.96;39.67;99101.97;4934625;29;8864;-67
2021/01/30 09:56:12;;;;;;;;;7.75;7.75;;;;;27.93;40.13;99098.06;4932680;29;8882;-67
2021/01/30 09:58:43;;;;;;;;;10.25;9.25;;;;;27.90;39.50;99093.38;4933052;29;8900;-67
2021/01/30 10:01:33;;;;;;;;;12.50;9.75;;;;;27.88;39.34;99095.69;4933987;29;8867;-68
2021/01/30 10:04:31;;;;;;;;;11.25;11.00;;;;;27.85;39.14;99093.72;4934620;29;8943;-68
2021/01/30 10:07:16;;;;;;;;;10.25;10.25;;;;;27.81;39.47;99082.06;4934804;29;8906;-68
2021/01/30 10:09:48;;;;;;;;;12.50;11.00;;;;;27.82;39.87;99097.97;4934613;29;8966;-67
2021/01/30 10:12:21;;;;;;;;;10.00;10.00;;;;;27.79;38.80;99087.88;4933923;29;8878;-68
2021/01/30 10:14:59;;;;;;;;;10.25;10.25;;;;;27.80;39.31;99096.78;4934572;29;8880;-67
2021/01/30 10:17:42;;;;;;;;;13.25;11.00;;;;;27.80;38.25;99094.06;4933576;29;9648;-68
2021/01/30 10:20:14;;;;;;;;;13.00;11.25;;;;;27.80;39.09;99094.06;4933992;29;8999;-68
2021/01/30 10:22:48;;;;;;;;;15.75;14.00;;;;;27.76;38.69;99085.91;4935053;29;8860;-67
2021/01/30 10:25:27;;;;;;;;;15.50;14.25;;;;;27.78;38.91;99091.72;4934823;29;8859;-67
2021/01/30 10:28:13;;;;;;;;;22.75;18.75;;;;;27.77;38.58;99092.88;4918286;29;8859;-68
2021/01/30 10:30:42;;;;;;;;;19.33;19.33;;;;;27.71;38.32;99090.88;4934647;29;8885;-67
2021/01/30 10:33:14;;;;;;;;;21.33;19.67;;;;;27.76;38.85;99093.25;4934679;29;9057;-67
2021/01/30 10:35:48;;;;;;;;;25.67;21.67;;;;;27.75;38.35;99092.47;4934623;29;9066;-67
2021/01/30 10:38:27;;;;;;;;;24.50;18.25;;;;;27.73;38.59;99091.28;4934872;29;8965;-68
2021/01/30 10:41:02;;;;;;;;;22.75;19.75;;;;;27.70;38.73;99092.81;4934560;29;8886;-67
2021/01/30 10:43:37;;;;;;;;;19.25;18.75;;;;;27.69;39.00;99096.69;4934506;29;8866;-67
2021/01/30 10:46:25;;;;;;;;;14.00;13.00;;;;;27.66;39.26;99100.13;4935397;29;9002;-67
2021/01/30 10:49:01;;;;;;;;;13.75;13.75;;;;;27.62;39.51;99093.88;4934550;29;8872;-67
2021/01/30 10:51:32;;;;;;;;;13.75;13.25;;;;;27.56;39.19;99100.75;4934530;29;8950;-67
2021/01/30 10:54:30;;;;;;;;;16.00;15.50;;;;;27.51;39.21;99111.94;4934874;29;8887;-67
2021/01/30 10:57:06;;;;;;;;;20.00;14.75;;;;;27.46;39.25;99107.63;4917971;29;8848;-68
2021/01/30 10:59:55;;;;;;;;;18.50;18.00;;;;;27.43;39.54;99107.59;4934481;29;8872;-67
2021/01/30 11:02:35;;;;;;;;;17.50;13.75;;;;;27.39;39.34;99106.75;4934384;29;8871;-67
2021/01/30 11:05:24;;;;;;;;;17.25;14.75;;;;;27.34;39.38;99116.00;4934404;29;8873;-67
2021/01/30 11:07:57;;;;;;;;;17.00;15.00;;;;;27.32;39.61;99112.88;4934482;29;8871;-68
2021/01/30 11:10:25;;;;;;;;;14.50;13.00;;;;;27.28;39.58;99115.56;4934266;29;9683;-68
2021/01/30 11:13:16;;;;;;;;;14.25;12.50;;;;;27.26;39.91;99117.09;4934436;29;8986;-68
2021/01/30 11:15:48;;;;;;;;;13.50;12.25;;;;;27.23;40.11;99118.59;4917920;29;8912;-68
2021/01/30 11:18:28;;;;;;;;;17.00;13.75;;;;;27.20;40.22;99123.97;4934310;29;8864;-67
2021/01/30 11:20:59;;;;;;;;;15.50;12.75;;;;;27.17;39.94;99122.00;4934334;29;8859;-67
2021/01/30 11:23:48;;;;;;;;;16.00;15.00;;;;;27.15;40.09;99127.78;4934285;29;8878;-68
2021/01/30 11:26:37;;;;;;;;;10.75;10.75;;;;;27.14;39.98;99128.16;4934999;29;9008;-67
2021/01/30 11:29:27;;;;;;;;;15.50;14.25;;;;;27.13;40.17;99130.09;4934499;29;8860;-68
2021/01/30 11:31:57;;;;;;;;;15.75;11.25;;;;;27.12;40.19;99131.22;4935259;29;8871;-68
2021/01/30 11:34:26;;;;;;;;;12.25;10.75;;;;;27.05;40.25;99123.00;4937750;29;8856;-67
2021/01/30 11:36:56;;;;;;;;;13.50;11.25;;;;;26.99;40.36;99127.19;4937647;29;8894;-67
2021/01/30 11:39:27;;;;;;;;;15.75;14.75;;;;;27.00;40.65;99131.47;4937407;29;8879;-68
2021/01/30 11:41:56;;;;;;;;;13.00;13.00;;;;;26.91;40.44;99128.22;4937495;29;8851;-67
2021/01/30 11:44:26;;;;;;;;;15.25;15.00;;;;;26.90;40.16;99140.19;4937543;29;8889;-67
2021/01/30 11:46:56;;;;;;;;;14.00;13.00;;;;;26.86;40.50;99147.47;4937446;29;8890;-68
2021/01/30 11:49:24;;;;;;;;;13.50;13.50;;;;;26.84;40.65;99147.06;4937490;29;9010;-67
2021/01/30 11:51:52;;;;;;;;;12.50;12.25;;;;;26.81;40.80;99139.66;4937314;29;8860;-67
2021/01/30 11:54:21;;;;;;;;;11.75;10.75;;;;;26.78;41.03;99140.41;4937359;29;8872;-67
2021/01/30 11:56:49;;;;;;;;;16.67;16.00;;;;;26.72;41.20;99148.03;4937305;29;8872;-67
2021/01/30 11:59:17;;;;;;;;;13.67;13.33;;;;;26.64;40.55;99133.63;4937191;29;8982;-67
2021/01/30 12:01:46;;;;;;;;;16.67;16.67;;;;;26.67;40.88;99153.00;4937201;29;8951;-67
2021/01/30 12:04:14;;;;;;;;;27.33;24.00;;;;;26.64;40.72;99140.97;4937175;29;8957;-67
2021/01/30 12:06:43;;;;;;;;;23.00;22.67;;;;;26.60;41.05;99143.63;4937136;29;9222;-68
2021/01/30 12:09:11;;;;;;;;;32.00;27.25;;;;;26.60;41.34;99140.13;4937050;29;9416;-67
2021/01/30 12:11:39;;;;;;;;;42.75;33.75;;;;;26.60;41.00;99153.66;4936913;29;10562;-67
2021/01/30 12:14:07;;;;;;;;;32.50;29.00;;;;;26.57;40.85;99152.47;4936845;29;10132;-68